Time;durP1;ratioP1;P1;durP2;ratioP2;P2;SDS_P1;SDS_P2;PMS_P1;PMS_P2;Temp;Humidity;BMP_temperature;BMP_pressure;BME280_temperature;BME280_humidity;BME280_pressure;Samples;Min_cycle;Max_cycle;Signal;HPM_P1;HPM_P2
2022/05/13 00:02:10;;;;;;;4.53;2.08;;;12.40;99.90;;;;;;5052763;28;20053;-74
2022/05/13 00:04:36;;;;;;;7.10;2.10;;;12.50;99.90;;;;;;5036255;28;20065;-74
2022/05/13 00:07:02;;;;;;;5.03;2.10;;;12.50;99.90;;;;;;5037528;28;20073;-73
2022/05/13 00:12:12;;;;;;;8.43;2.40;;;12.50;99.90;;;;;;5053222;28;20128;-74
2022/05/13 00:14:38;;;;;;;6.15;2.80;;;12.50;99.90;;;;;;5050222;28;20040;-73
2022/05/13 00:17:04;;;;;;;9.60;2.22;;;12.50;99.90;;;;;;5033757;28;20033;-74
2022/05/13 00:19:31;;;;;;;6.40;2.22;;;12.60;99.90;;;;;;5043457;28;20033;-74
2022/05/13 00:21:57;;;;;;;8.18;2.00;;;12.60;99.90;;;;;;5036285;28;20033;-74
2022/05/13 00:24:22;;;;;;;7.65;2.30;;;12.60;99.90;;;;;;5053550;28;20037;-74
2022/05/13 00:26:48;;;;;;;10.75;2.72;;;12.60;99.90;;;;;;5053816;28;20379;-74
2022/05/13 00:29:13;;;;;;;5.60;2.13;;;12.60;99.90;;;;;;5036061;28;20489;-74
2022/05/13 00:31:39;;;;;;;9.20;2.35;;;12.60;99.90;;;;;;5035286;28;20040;-74
2022/05/13 00:34:04;;;;;;;8.23;2.28;;;12.70;99.90;;;;;;5035940;28;20382;-74
2022/05/13 00:36:30;;;;;;;7.13;2.58;;;12.60;99.90;;;;;;5053597;28;20036;-74
2022/05/13 00:38:56;;;;;;;8.25;2.13;;;12.70;99.90;;;;;;5052663;28;20037;-74
2022/05/13 00:41:21;;;;;;;8.52;2.55;;;12.60;99.90;;;;;;5036669;28;20052;-74
2022/05/13 00:43:52;;;;;;;11.10;2.55;;;12.60;99.90;;;;;;5035605;28;20041;-74
2022/05/13 00:46:22;;;;;;;7.00;2.50;;;12.60;99.90;;;;;;5053178;28;20124;-74
2022/05/13 00:48:48;;;;;;;7.28;2.65;;;12.50;99.90;;;;;;5036343;28;20132;-74
2022/05/13 00:51:18;;;;;;;7.57;2.42;;;12.50;99.90;;;;;;5036471;28;20128;-74
2022/05/13 00:53:46;;;;;;;6.65;2.17;;;12.60;99.90;;;;;;5052176;28;20115;-74
2022/05/13 00:56:11;;;;;;;7.38;2.30;;;12.60;99.90;;;;;;5035609;28;20056;-74
2022/05/13 00:58:41;;;;;;;6.53;2.40;;;12.60;99.90;;;;;;5036480;28;20497;-74
2022/05/13 01:01:06;;;;;;;8.13;2.20;;;12.60;99.90;;;;;;5034671;28;20056;-74
2022/05/13 01:03:33;;;;;;;6.32;2.25;;;12.60;99.90;;;;;;5036371;28;20476;-74
2022/05/13 01:06:03;;;;;;;7.30;2.28;;;12.70;99.90;;;;;;5052845;28;20485;-75
2022/05/13 01:08:33;;;;;;;6.07;2.03;;;12.60;99.90;;;;;;5051778;28;20045;-74
2022/05/13 01:11:02;;;;;;;7.93;2.45;;;12.70;99.90;;;;;;5052712;28;20044;-74
2022/05/13 01:13:30;;;;;;;8.70;2.45;;;12.60;99.90;;;;;;5034907;28;20052;-74
2022/05/13 01:15:56;;;;;;;7.07;2.05;;;12.60;99.90;;;;;;5052837;28;20048;-74
2022/05/13 01:18:31;;;;;;;7.63;2.30;;;12.60;99.90;;;;;;5052568;28;20044;-74
2022/05/13 01:20:57;;;;;;;6.25;2.22;;;12.60;99.90;;;;;;5051804;28;20045;-74
2022/05/13 01:23:32;;;;;;;7.68;2.08;;;12.50;99.90;;;;;;5034532;28;20500;-74
2022/05/13 01:26:05;;;;;;;10.02;2.70;;;12.50;99.90;;;;;;5052477;28;20048;-74
2022/05/13 01:28:34;;;;;;;7.93;2.40;;;12.60;99.90;;;;;;5052548;28;20045;-74
2022/05/13 01:31:03;;;;;;;7.30;2.28;;;12.60;99.90;;;;;;5052400;28;20108;-74
2022/05/13 01:33:29;;;;;;;8.68;2.80;;;12.60;99.90;;;;;;5049886;28;20098;-74
2022/05/13 01:35:57;;;;;;;9.10;2.42;;;12.70;99.90;;;;;;5035150;28;20036;-74
2022/05/13 01:38:26;;;;;;;8.43;2.45;;;12.70;99.90;;;;;;5052233;28;20138;-74
2022/05/13 01:40:52;;;;;;;11.25;2.72;;;12.70;99.90;;;;;;5035032;28;20053;-74
2022/05/13 01:43:18;;;;;;;6.05;2.15;;;12.70;99.90;;;;;;5035828;28;20036;-74
2022/05/13 01:45:44;;;;;;;7.45;2.30;;;12.70;99.90;;;;;;5035682;28;20040;-74
2022/05/13 01:48:10;;;;;;;6.70;1.90;;;12.70;99.90;;;;;;5051112;28;20519;-74
2022/05/13 01:50:37;;;;;;;9.75;2.53;;;12.70;99.90;;;;;;5035038;28;20048;-74
2022/05/13 01:53:03;;;;;;;9.88;2.58;;;12.70;99.90;;;;;;5035633;28;20051;-74
2022/05/13 01:55:29;;;;;;;10.75;2.55;;;12.70;99.90;;;;;;5051003;28;20041;-74
2022/05/13 01:57:55;;;;;;;11.85;2.67;;;12.70;99.90;;;;;;5050909;28;20091;-74
2022/05/13 02:00:22;;;;;;;10.45;2.85;;;12.60;99.90;;;;;;5052017;28;20048;-74
2022/05/13 02:05:32;;;;;;;10.35;2.60;;;12.60;99.90;;;;;;5049901;28;20044;-74
2022/05/13 02:07:58;;;;;;;8.45;2.45;;;12.60;99.90;;;;;;5051829;28;20083;-74
2022/05/13 02:10:23;;;;;;;13.05;3.10;;;12.60;99.90;;;;;;5035279;28;20450;-74
2022/05/13 02:12:49;;;;;;;7.28;3.05;;;12.70;99.90;;;;;;5034533;28;20064;-74
2022/05/13 02:15:15;;;;;;;10.88;2.80;;;12.60;99.90;;;;;;5033274;28;20477;-74
2022/05/13 02:17:41;;;;;;;6.53;2.30;;;12.50;99.90;;;;;;5051976;28;20060;-74
2022/05/13 02:20:07;;;;;;;7.55;2.42;;;12.60;99.90;;;;;;5051939;28;20041;-74
2022/05/13 02:22:33;;;;;;;8.18;2.33;;;12.60;99.90;;;;;;5051142;28;20078;-74
2022/05/13 02:25:00;;;;;;;9.57;2.75;;;12.50;99.90;;;;;;5051845;28;20044;-75
2022/05/13 02:27:25;;;;;;;9.23;2.80;;;12.60;99.90;;;;;;5051999;28;20056;-73
2022/05/13 02:29:51;;;;;;;7.88;2.50;;;12.60;99.90;;;;;;5034217;28;20473;-74
2022/05/13 02:32:16;;;;;;;8.50;2.30;;;12.60;99.90;;;;;;5051636;28;20033;-74
2022/05/13 02:34:42;;;;;;;8.38;2.47;;;12.60;99.90;;;;;;5033954;28;20087;-73
2022/05/13 02:37:08;;;;;;;8.18;2.55;;;12.60;99.90;;;;;;5040380;28;20044;-74
2022/05/13 02:39:33;;;;;;;7.20;2.80;;;12.60;99.90;;;;;;5015505;28;20173;-74
2022/05/13 02:41:59;;;;;;;7.65;2.50;;;12.60;99.90;;;;;;5048910;28;20041;-74
2022/05/13 02:44:25;;;;;;;7.35;2.67;;;12.60;99.90;;;;;;5050057;28;20456;-74
2022/05/13 02:46:51;;;;;;;8.15;2.65;;;12.60;99.90;;;;;;5055293;28;20083;-74
2022/05/13 02:49:18;;;;;;;8.85;2.67;;;12.50;99.90;;;;;;5050841;28;20037;-74
2022/05/13 02:51:48;;;;;;;11.57;3.65;;;12.60;99.90;;;;;;5038734;28;20444;-74
2022/05/13 02:54:15;;;;;;;7.30;2.70;;;12.60;99.90;;;;;;5018859;28;20490;-74
2022/05/13 02:56:40;;;;;;;9.48;3.00;;;12.60;99.90;;;;;;5036179;28;20103;-74
2022/05/13 02:59:06;;;;;;;9.38;3.03;;;12.50;99.90;;;;;;5024541;28;20501;-73
2022/05/13 03:01:34;;;;;;;10.82;2.90;;;12.50;99.90;;;;;;5024204;28;20053;-73
2022/05/13 03:04:00;;;;;;;7.22;2.67;;;12.50;99.90;;;;;;5012233;28;20121;-73
2022/05/13 03:06:26;;;;;;;10.73;3.50;;;12.50;99.90;;;;;;5030951;28;20482;-74
2022/05/13 03:08:53;;;;;;;9.65;2.90;;;12.50;99.90;;;;;;5015070;28;20141;-73
2022/05/13 03:11:20;;;;;;;9.43;2.90;;;12.50;99.90;;;;;;5008158;28;20188;-73
2022/05/13 03:13:47;;;;;;;9.65;2.95;;;12.40;99.90;;;;;;5042255;28;20388;-73
2022/05/13 03:16:18;;;;;;;8.02;2.97;;;12.40;99.90;;;;;;5054468;28;20075;-73
2022/05/13 03:18:44;;;;;;;9.05;2.88;;;12.40;99.90;;;;;;5029269;28;20098;-73
2022/05/13 03:21:10;;;;;;;9.30;2.72;;;12.40;99.90;;;;;;5024029;28;20401;-73
2022/05/13 03:23:37;;;;;;;10.75;2.80;;;12.40;99.90;;;;;;5027555;28;20102;-73
2022/05/13 03:26:03;;;;;;;9.27;2.78;;;12.30;99.90;;;;;;5008394;28;20041;-74
2022/05/13 03:28:28;;;;;;;8.23;2.92;;;12.30;99.90;;;;;;5005918;28;20041;-74
2022/05/13 03:30:54;;;;;;;8.18;3.10;;;12.30;99.90;;;;;;5029559;28;20485;-74
2022/05/13 03:33:20;;;;;;;7.88;3.00;;;12.30;99.90;;;;;;5023953;28;20477;-74
2022/05/13 03:35:46;;;;;;;10.68;3.13;;;12.30;99.90;;;;;;5024087;28;20650;-74
2022/05/13 03:38:12;;;;;;;10.25;3.00;;;12.30;99.90;;;;;;5004163;28;21384;-73
2022/05/13 03:40:38;;;;;;;7.38;3.00;;;12.30;99.90;;;;;;5008675;28;20041;-73
2022/05/13 03:43:05;;;;;;;9.90;2.95;;;12.40;99.90;;;;;;5006306;28;20029;-73
2022/05/13 03:45:32;;;;;;;11.40;3.42;;;12.30;99.90;;;;;;5008129;28;20136;-74
2022/05/13 03:47:59;;;;;;;8.23;3.08;;;12.30;99.90;;;;;;5023294;28;20177;-74
2022/05/13 03:50:26;;;;;;;10.98;3.85;;;12.40;99.90;;;;;;5024835;28;20049;-74
2022/05/13 03:52:52;;;;;;;10.13;3.30;;;12.30;99.90;;;;;;5038196;28;20044;-73
2022/05/13 03:55:18;;;;;;;11.00;3.47;;;12.40;99.90;;;;;;5048168;28;20037;-73
2022/05/13 03:57:44;;;;;;;11.18;3.40;;;12.40;99.90;;;;;;5024512;28;20043;-73
2022/05/13 04:00:11;;;;;;;10.07;3.30;;;12.40;99.90;;;;;;5036618;28;20065;-73
2022/05/13 04:02:38;;;;;;;11.82;3.10;;;12.30;99.90;;;;;;5023816;28;20049;-73
2022/05/13 04:10:33;;;;;;;13.25;3.35;;;12.30;99.90;;;;;;5025272;28;20629;-73
2022/05/13 04:18:27;;;;;;;11.75;4.53;;;12.30;99.90;;;;;;5025601;28;20046;-73
2022/05/13 04:20:52;;;;;;;11.63;3.40;;;12.20;99.90;;;;;;5024514;28;20102;-74
2022/05/13 04:23:21;;;;;;;12.05;3.25;;;12.20;99.90;;;;;;5025209;28;20056;-73
2022/05/13 04:25:47;;;;;;;8.88;3.30;;;12.30;99.90;;;;;;5008902;28;20479;-73
2022/05/13 04:28:12;;;;;;;11.45;3.90;;;12.20;99.90;;;;;;5007609;28;20037;-73
2022/05/13 04:30:38;;;;;;;9.57;3.42;;;12.30;99.90;;;;;;5023916;28;20059;-73
2022/05/13 04:33:04;;;;;;;10.27;3.20;;;12.30;99.90;;;;;;5029632;28;20041;-74
2022/05/13 04:35:30;;;;;;;9.48;3.38;;;12.30;99.90;;;;;;5034056;28;20041;-73
2022/05/13 04:37:56;;;;;;;10.63;3.75;;;12.40;99.90;;;;;;5053243;28;20056;-73
2022/05/13 04:40:21;;;;;;;13.85;4.13;;;12.40;99.90;;;;;;5036732;28;20041;-74
2022/05/13 04:42:50;;;;;;;11.50;3.50;;;12.40;99.90;;;;;;5034930;28;20041;-74
2022/05/13 04:45:17;;;;;;;12.13;3.83;;;12.30;99.90;;;;;;5023960;28;20056;-73
2022/05/13 04:50:26;;;;;;;10.75;3.30;;;12.40;99.90;;;;;;5024441;28;20067;-74
2022/05/13 04:52:52;;;;;;;10.40;3.08;;;12.30;99.90;;;;;;5005513;28;20871;-73
2022/05/13 04:55:17;;;;;;;9.95;3.38;;;12.30;99.90;;;;;;5029136;28;20033;-72
2022/05/13 04:57:43;;;;;;;12.23;3.97;;;12.40;99.90;;;;;;5036316;28;20523;-72
2022/05/13 05:00:09;;;;;;;12.57;3.60;;;12.40;99.90;;;;;;5021865;28;20139;-72
2022/05/13 05:02:35;;;;;;;11.68;3.33;;;12.40;99.90;;;;;;5023195;28;20054;-72
2022/05/13 05:05:00;;;;;;;10.85;3.30;;;12.40;99.90;;;;;;5029008;28;20590;-72
2022/05/13 05:07:26;;;;;;;15.18;3.33;;;12.40;99.90;;;;;;5027391;28;20485;-72
2022/05/13 05:09:51;;;;;;;12.55;3.20;;;12.40;99.90;;;;;;5021680;28;20165;-72
2022/05/13 05:12:17;;;;;;;12.73;3.65;;;12.40;99.90;;;;;;5006871;28;20045;-72
2022/05/13 05:14:43;;;;;;;12.10;3.00;;;12.40;99.90;;;;;;5012422;28;20127;-72
2022/05/13 05:17:08;;;;;;;15.73;4.07;;;12.40;99.90;;;;;;5010344;28;20044;-72
2022/05/13 05:19:34;;;;;;;14.82;3.83;;;12.40;99.90;;;;;;5005435;28;20080;-72
2022/05/13 05:21:59;;;;;;;9.90;2.83;;;12.40;99.90;;;;;;5025724;28;20037;-72
2022/05/13 05:24:25;;;;;;;12.27;3.47;;;12.40;99.90;;;;;;5022723;28;20044;-73
2022/05/13 05:26:51;;;;;;;13.52;3.40;;;12.50;99.90;;;;;;5010893;28;20779;-72
2022/05/13 05:29:16;;;;;;;11.60;3.40;;;12.50;99.90;;;;;;5021583;28;20045;-73
2022/05/13 05:31:42;;;;;;;11.90;3.50;;;12.40;99.90;;;;;;5022438;28;20044;-72
2022/05/13 05:34:09;;;;;;;13.90;4.03;;;12.40;99.90;;;;;;5039022;28;20030;-72
2022/05/13 05:36:35;;;;;;;13.48;3.80;;;12.50;99.90;;;;;;5005869;28;20416;-72
2022/05/13 05:39:01;;;;;;;11.63;3.40;;;12.60;99.90;;;;;;5021020;28;20045;-73
2022/05/13 05:41:26;;;;;;;11.90;3.47;;;12.70;99.90;;;;;;5021953;28;20080;-73
2022/05/13 05:43:52;;;;;;;11.65;3.50;;;12.70;99.90;;;;;;5021185;28;20041;-72
2022/05/13 05:46:18;;;;;;;10.40;3.10;;;12.60;99.90;;;;;;5025075;28;20042;-73
2022/05/13 05:48:43;;;;;;;15.60;4.07;;;12.70;99.90;;;;;;5009516;28;20078;-72
2022/05/13 05:51:09;;;;;;;10.35;3.17;;;12.70;99.90;;;;;;5021272;28;20130;-73
2022/05/13 05:59:04;;;;;;;12.95;3.65;;;13.00;99.90;;;;;;5037061;28;20052;-72
2022/05/13 06:01:30;;;;;;;9.18;3.08;;;13.00;99.90;;;;;;5027879;28;20049;-72
2022/05/13 06:03:55;;;;;;;14.10;4.25;;;13.10;99.90;;;;;;5012072;28;20052;-72
2022/05/13 06:06:21;;;;;;;15.48;3.08;;;13.30;99.90;;;;;;5010836;28;20041;-72
2022/05/13 06:08:47;;;;;;;17.63;4.35;;;13.30;99.90;;;;;;5019885;28;20072;-72
2022/05/13 06:11:13;;;;;;;12.27;3.15;;;13.20;99.90;;;;;;5016871;28;20033;-73
2022/05/13 06:13:38;;;;;;;14.05;3.50;;;13.40;99.90;;;;;;5002549;28;20041;-72
2022/05/13 06:16:07;;;;;;;10.30;3.42;;;13.40;99.90;;;;;;5030860;28;20037;-72
2022/05/13 06:18:34;;;;;;;11.13;3.13;;;13.40;99.90;;;;;;5016095;28;20055;-72
2022/05/13 06:21:00;;;;;;;13.73;4.10;;;13.40;99.90;;;;;;5019245;28;20592;-72
2022/05/13 06:23:25;;;;;;;14.43;3.20;;;13.40;99.90;;;;;;5021363;28;20041;-72
2022/05/13 06:25:51;;;;;;;11.52;3.00;;;13.40;99.90;;;;;;5020736;28;21213;-72
2022/05/13 06:28:16;;;;;;;13.43;3.20;;;13.40;99.90;;;;;;5023371;28;20053;-72
2022/05/13 06:30:42;;;;;;;9.68;2.85;;;13.50;99.90;;;;;;5021163;28;20036;-72
2022/05/13 06:33:08;;;;;;;12.50;2.83;;;13.60;99.90;;;;;;5007518;28;20119;-73
2022/05/13 06:35:34;;;;;;;17.13;3.80;;;13.50;99.90;;;;;;5005129;28;20052;-72
2022/05/13 06:37:59;;;;;;;10.57;2.90;;;13.60;99.90;;;;;;5025022;28;20065;-72
2022/05/13 06:40:26;;;;;;;12.75;2.95;;;13.50;99.90;;;;;;5033603;28;20473;-73
2022/05/13 06:42:52;;;;;;;8.90;2.60;;;13.50;99.90;;;;;;5021193;28;20489;-72
2022/05/13 06:45:18;;;;;;;10.70;2.50;;;13.60;99.90;;;;;;5029080;28;20508;-72
2022/05/13 06:47:44;;;;;;;12.20;2.72;;;13.80;99.90;;;;;;5033022;28;20056;-76
2022/05/13 06:50:16;;;;;;;15.80;2.72;;;13.70;99.90;;;;;;5035693;28;20049;-71
2022/05/13 06:52:42;;;;;;;9.90;2.25;;;13.80;99.90;;;;;;5038177;28;20040;-72
2022/05/13 06:55:09;;;;;;;8.55;2.10;;;13.90;99.90;;;;;;5037737;28;20041;-72
2022/05/13 06:57:37;;;;;;;9.57;2.45;;;14.00;99.90;;;;;;5036020;28;20044;-72
2022/05/13 07:00:07;;;;;;;7.82;1.95;;;14.10;99.90;;;;;;5054900;28;20124;-72
2022/05/13 07:02:33;;;;;;;7.80;2.53;;;14.00;99.90;;;;;;5054337;28;20071;-73
2022/05/13 07:04:58;;;;;;;7.55;2.33;;;14.00;99.90;;;;;;5037409;28;20485;-70
2022/05/13 07:07:24;;;;;;;7.90;2.10;;;13.90;99.90;;;;;;5053914;28;20037;-70
2022/05/13 07:09:49;;;;;;;7.60;1.95;;;14.10;99.90;;;;;;5037145;28;20037;-70
2022/05/13 07:12:16;;;;;;;6.93;1.80;;;14.00;99.90;;;;;;5054628;28;20107;-70
2022/05/13 07:14:41;;;;;;;8.25;2.00;;;14.00;99.90;;;;;;5036716;28;20035;-70
2022/05/13 07:17:07;;;;;;;8.18;2.25;;;13.90;99.90;;;;;;5054451;28;20033;-74
2022/05/13 07:19:33;;;;;;;6.40;1.80;;;14.00;99.90;;;;;;5036482;28;20400;-72
2022/05/13 07:22:00;;;;;;;7.05;1.85;;;14.10;99.90;;;;;;5038251;28;20095;-72
2022/05/13 07:24:26;;;;;;;9.02;2.22;;;14.10;99.90;;;;;;5035533;28;20044;-73
2022/05/13 07:26:52;;;;;;;6.78;2.05;;;14.20;99.90;;;;;;5034797;28;20071;-71
2022/05/13 07:29:18;;;;;;;7.63;2.10;;;14.10;99.90;;;;;;5052611;28;20485;-71
2022/05/13 07:31:43;;;;;;;10.20;2.25;;;14.10;99.90;;;;;;5053414;28;20040;-71
2022/05/13 07:34:09;;;;;;;8.02;2.80;;;14.30;99.90;;;;;;5053583;28;20033;-71
2022/05/13 07:36:35;;;;;;;9.05;1.88;;;14.30;99.90;;;;;;5036667;28;20554;-73
2022/05/13 07:41:47;;;;;;;6.95;1.80;;;14.70;99.90;;;;;;5052993;28;20048;-71
2022/05/13 07:44:13;;;;;;;7.55;1.88;;;14.80;99.90;;;;;;5036919;28;20110;-71
2022/05/13 07:46:38;;;;;;;5.88;1.60;;;14.90;99.90;;;;;;5036485;28;20048;-71
2022/05/13 07:49:05;;;;;;;8.02;1.98;;;14.70;99.90;;;;;;5053564;28;20087;-71
2022/05/13 07:51:30;;;;;;;9.45;1.88;;;14.70;99.90;;;;;;5052346;28;20086;-71
2022/05/13 07:53:56;;;;;;;6.30;1.58;;;14.80;99.90;;;;;;5051902;28;20037;-71
2022/05/13 07:56:21;;;;;;;6.40;1.77;;;15.00;99.90;;;;;;5020311;28;20030;-71
2022/05/13 07:58:47;;;;;;;8.50;2.10;;;15.20;99.90;;;;;;5047003;28;20555;-71
2022/05/13 08:01:14;;;;;;;9.00;2.05;;;15.10;99.90;;;;;;5036557;28;20057;-71
2022/05/13 08:03:41;;;;;;;6.32;1.50;;;15.30;99.90;;;;;;5036110;28;20052;-71
2022/05/13 08:06:08;;;;;;;5.70;1.88;;;15.40;99.90;;;;;;5054236;28;20049;-71
2022/05/13 08:08:37;;;;;;;6.28;1.60;;;15.50;99.90;;;;;;5052513;28;20041;-71
2022/05/13 08:11:05;;;;;;;6.70;1.65;;;15.40;99.90;;;;;;5053486;28;20132;-71
2022/05/13 08:13:33;;;;;;;6.60;1.55;;;15.50;99.90;;;;;;5035775;28;20037;-71
2022/05/13 08:16:26;;;;;;;9.60;1.80;;;15.40;99.90;;;;;;5052371;28;20065;-71
2022/05/13 08:18:55;;;;;;;;;;;15.40;99.90;;;;;;5032751;28;20417;-73
2022/05/13 08:21:21;;;;;;;5.78;1.48;;;15.40;99.90;;;;;;5035392;28;19924;-73
2022/05/13 08:23:47;;;;;;;6.03;1.40;;;15.40;99.90;;;;;;5051243;28;20036;-74
2022/05/13 08:26:13;;;;;;;5.22;1.38;;;15.30;99.90;;;;;;5052949;28;20045;-74
2022/05/13 08:28:40;;;;;;;5.45;1.63;;;15.10;99.90;;;;;;5053308;28;20041;-73
2022/05/13 08:31:06;;;;;;;6.75;1.45;;;15.20;99.90;;;;;;5044616;28;20162;-73
2022/05/13 08:33:32;;;;;;;5.50;1.50;;;15.10;99.90;;;;;;5035379;28;20033;-73
2022/05/13 08:36:01;;;;;;;7.20;1.48;;;15.00;99.90;;;;;;5052534;28;20086;-73
2022/05/13 08:38:35;;;;;;;7.43;1.90;;;15.00;99.90;;;;;;5036313;28;20055;-73
2022/05/13 08:41:08;;;;;;;6.25;1.50;;;15.00;99.90;;;;;;5053038;28;20041;-73
2022/05/13 08:43:41;;;;;;;6.75;1.55;;;15.00;99.90;;;;;;5052747;28;20083;-73
2022/05/13 08:46:16;;;;;;;7.53;1.73;;;14.90;99.90;;;;;;5036574;28;20041;-73
2022/05/13 08:48:53;;;;;;;5.40;1.33;;;15.10;99.90;;;;;;5053085;28;20052;-73
2022/05/13 08:51:47;;;;;;;5.85;1.40;;;15.10;99.90;;;;;;5052592;28;20120;-73
2022/05/13 08:54:17;;;;;;;5.70;1.80;;;15.40;99.90;;;;;;5036360;28;20399;-74
2022/05/13 08:56:55;;;;;;;6.25;1.63;;;15.40;99.90;;;;;;5052843;28;20087;-73
2022/05/13 08:59:25;;;;;;;7.45;1.73;;;15.50;99.90;;;;;;5052868;28;20095;-74
2022/05/13 09:02:10;;;;;;;9.65;1.98;;;15.40;99.90;;;;;;5035686;28;20398;-73
2022/05/13 09:04:40;;;;;;;7.57;1.55;;;15.20;99.90;;;;;;5052926;28;20477;-73
2022/05/13 09:07:12;;;;;;;6.43;1.70;;;15.30;99.90;;;;;;5032255;28;20068;-75
2022/05/13 09:09:41;;;;;;;8.90;1.65;;;15.50;99.90;;;;;;5049962;28;20037;-73
2022/05/13 09:12:39;;;;;;;7.40;1.50;;;15.40;99.90;;;;;;5025686;28;20045;-73
2022/05/13 09:15:44;;;;;;;6.60;1.60;;;15.70;99.90;;;;;;5016107;28;20128;-74
2022/05/13 09:18:35;;;;;;;5.75;1.40;;;15.60;99.90;;;;;;4975584;28;20042;-74
2022/05/13 09:21:11;;;;;;;5.55;1.35;;;15.90;99.90;;;;;;4993792;28;20049;-74
2022/05/13 09:23:36;;;;;;;7.63;1.60;;;16.10;99.90;;;;;;5033977;28;20060;-73
2022/05/13 09:26:13;;;;;;;5.57;1.38;;;16.10;99.90;;;;;;5032037;28;20041;-74
2022/05/13 09:29:03;;;;;;;3.95;1.30;;;16.10;99.90;;;;;;5039225;28;20063;-74
2022/05/13 09:31:31;;;;;;;5.13;1.40;;;16.10;99.90;;;;;;5034827;28;20044;-73
2022/05/13 09:33:57;;;;;;;4.65;1.40;;;16.10;99.90;;;;;;5033801;28;20040;-73
2022/05/13 09:36:22;;;;;;;5.57;1.30;;;16.10;99.90;;;;;;5052354;28;20405;-74
2022/05/13 09:38:57;;;;;;;5.55;1.25;;;16.10;99.90;;;;;;5051113;28;20080;-74
2022/05/13 09:41:26;;;;;;;6.22;1.35;;;16.00;99.90;;;;;;5050604;28;20120;-74
2022/05/13 09:43:55;;;;;;;4.78;1.27;;;16.20;99.90;;;;;;5050638;28;20539;-74
2022/05/13 09:46:47;;;;;;;4.78;2.00;;;16.10;99.90;;;;;;5033516;28;20082;-74
2022/05/13 09:49:28;;;;;;;4.88;1.20;;;16.10;99.90;;;;;;5031631;28;20116;-74
2022/05/13 09:51:59;;;;;;;3.33;1.30;;;16.10;99.90;;;;;;5026475;28;20040;-74
2022/05/13 09:54:31;;;;;;;6.72;1.77;;;15.90;99.90;;;;;;5031588;28;20049;-74
2022/05/13 09:57:07;;;;;;;5.40;1.50;;;15.80;99.90;;;;;;5032200;28;20492;-74
2022/05/13 09:59:58;;;;;;;6.68;1.38;;;15.60;99.90;;;;;;5034386;28;20047;-74
2022/05/13 10:02:37;;;;;;;4.63;1.10;;;15.60;99.90;;;;;;5033581;28;20536;-74
2022/05/13 10:05:12;;;;;;;4.50;1.13;;;15.60;99.90;;;;;;5049985;28;20555;-74
2022/05/13 10:07:51;;;;;;;5.07;1.45;;;15.50;99.90;;;;;;5051703;28;20417;-74
2022/05/13 10:16:14;;;;;;;3.95;1.40;;;15.50;99.90;;;;;;5050765;28;20045;-74
2022/05/13 10:19:18;;;;;;;6.53;1.63;;;15.70;99.90;;;;;;5051864;28;20036;-74
2022/05/13 10:22:09;;;;;;;5.25;1.58;;;15.90;99.90;;;;;;5030632;28;20107;-74
2022/05/13 10:24:57;;;;;;;5.23;1.50;;;16.30;99.90;;;;;;5031783;28;20045;-74
2022/05/13 10:27:45;;;;;;;7.03;1.45;;;16.30;99.90;;;;;;5041304;28;20037;-74
2022/05/13 10:30:39;;;;;;;5.85;1.55;;;16.00;99.90;;;;;;5049743;28;20041;-74
2022/05/13 10:33:16;;;;;;;6.45;1.45;;;16.00;99.90;;;;;;5042307;28;20045;-74
2022/05/13 10:36:08;;;;;;;6.28;1.50;;;16.00;99.90;;;;;;5034257;28;20029;-74
2022/05/13 10:38:43;;;;;;;8.37;1.90;;;16.00;99.90;;;;;;5051263;28;20049;-74
2022/05/13 10:41:17;;;;;;;7.72;1.40;;;15.90;99.90;;;;;;5034979;28;20045;-74
2022/05/13 10:43:59;;;;;;;3.78;1.40;;;16.10;99.90;;;;;;5031054;28;20040;-74
2022/05/13 10:46:55;;;;;;;7.80;1.52;;;16.40;99.90;;;;;;5047301;28;20037;-74
2022/05/13 10:49:22;;;;;;;7.78;1.50;;;16.40;99.90;;;;;;5020999;28;20056;-74
2022/05/13 10:51:56;;;;;;;7.60;1.52;;;16.40;99.90;;;;;;5047083;28;20044;-74
2022/05/13 10:54:39;;;;;;;7.47;1.90;;;16.40;99.90;;;;;;5034068;28;20041;-74
2022/05/13 10:57:14;;;;;;;6.43;1.85;;;16.00;99.90;;;;;;5050510;28;20037;-74
2022/05/13 11:00:10;;;;;;;6.55;1.70;;;15.80;99.90;;;;;;5025575;28;20045;-74
2022/05/13 11:03:01;;;;;;;8.32;1.65;;;15.90;99.90;;;;;;5034435;28;20080;-74
2022/05/13 11:05:36;;;;;;;7.75;1.90;;;16.10;99.90;;;;;;5030797;28;20044;-73
2022/05/13 11:08:21;;;;;;;6.63;1.75;;;16.30;99.90;;;;;;5052964;28;20439;-74
2022/05/13 11:11:13;;;;;;;5.57;1.30;;;16.40;99.90;;;;;;5033192;28;20405;-74
2022/05/13 11:13:53;;;;;;;8.00;1.30;;;16.50;99.90;;;;;;5019109;28;20121;-74
2022/05/13 11:16:46;;;;;;;10.05;1.27;;;16.50;99.90;;;;;;5027759;28;20366;-74
2022/05/13 11:19:30;;;;;;;3.95;1.15;;;16.50;99.90;;;;;;5035775;28;20038;-74
2022/05/13 11:22:19;;;;;;;4.75;1.02;;;16.30;99.90;;;;;;5036994;28;20045;-74
2022/05/13 11:28:31;;;;;;;4.97;1.40;;;16.20;99.90;;;;;;5052940;28;20136;-74
2022/05/13 11:31:29;;;;;;;7.97;1.83;;;16.10;99.90;;;;;;5050226;28;20485;-74
2022/05/13 11:34:40;;;;;;;10.07;2.05;;;16.20;99.90;;;;;;5033938;28;20099;-74
2022/05/13 11:37:10;;;;;;;3.80;1.42;;;16.10;99.90;;;;;;5018212;28;20079;-74
2022/05/13 11:40:13;;;;;;;6.38;1.60;;;16.10;99.90;;;;;;5052209;28;20041;-74
2022/05/13 11:43:20;;;;;;;6.90;1.60;;;16.00;99.90;;;;;;5037000;28;20045;-74
2022/05/13 11:46:15;;;;;;;7.60;1.60;;;16.00;99.90;;;;;;5054380;28;20183;-73
2022/05/13 11:48:46;;;;;;;6.25;1.80;;;15.90;99.90;;;;;;5047919;28;20119;-74
2022/05/13 11:51:24;;;;;;;6.53;1.80;;;15.80;99.90;;;;;;5053159;28;20048;-73
2022/05/13 11:54:01;;;;;;;10.65;2.60;;;15.80;99.90;;;;;;5038031;28;20052;-74
2022/05/13 11:56:30;;;;;;;7.80;2.55;;;15.70;99.90;;;;;;5037622;28;20033;-73
2022/05/13 11:59:11;;;;;;;6.47;2.17;;;15.80;99.90;;;;;;5053120;28;20040;-73
2022/05/13 12:01:43;;;;;;;8.95;2.28;;;15.90;99.90;;;;;;5049181;28;20041;-73
2022/05/13 12:04:14;;;;;;;5.82;1.90;;;16.00;99.90;;;;;;5046243;28;20053;-73
2022/05/13 12:06:52;;;;;;;8.38;2.08;;;16.20;99.90;;;;;;5046442;28;20036;-74
2022/05/13 12:09:56;;;;;;;4.88;1.20;;;16.10;99.90;;;;;;5033477;28;20041;-74
2022/05/13 12:12:42;;;;;;;7.55;1.50;;;16.40;99.90;;;;;;5030305;28;20060;-74
2022/05/13 12:15:44;;;;;;;3.15;0.95;;;16.60;99.90;;;;;;5017798;28;20401;-74
2022/05/13 12:18:42;;;;;;;5.38;1.30;;;16.80;99.30;;;;;;5028525;28;20049;-73
2022/05/13 12:21:33;;;;;;;4.18;0.98;;;16.80;99.40;;;;;;5042713;28;20084;-74
2022/05/13 12:24:22;;;;;;;6.25;1.42;;;16.80;99.90;;;;;;5016941;28;20049;-73
2022/05/13 12:26:54;;;;;;;4.93;1.27;;;16.90;99.90;;;;;;5052534;28;20044;-74
2022/05/13 12:29:22;;;;;;;3.88;0.75;;;17.00;98.80;;;;;;5036020;28;20041;-74
2022/05/13 12:31:54;;;;;;;6.68;1.23;;;17.00;96.40;;;;;;5036429;28;20037;-74
2022/05/13 12:37:42;;;;;;;2.85;0.95;;;17.10;95.30;;;;;;5050430;28;20053;-74
2022/05/13 12:40:15;;;;;;;4.47;1.17;;;17.10;98.60;;;;;;5041081;28;20038;-74
2022/05/13 12:42:44;;;;;;;6.20;1.30;;;17.20;99.10;;;;;;5046108;28;20059;-74
2022/05/13 12:45:18;;;;;;;5.97;1.30;;;17.20;96.90;;;;;;5051009;28;20045;-74
2022/05/13 12:48:09;;;;;;;6.70;1.60;;;17.10;96.30;;;;;;5016857;28;20048;-74
2022/05/13 12:50:50;;;;;;;5.18;1.30;;;16.90;96.80;;;;;;5032920;28;20045;-74
2022/05/13 12:53:28;;;;;;;5.72;1.20;;;16.90;96.90;;;;;;5016597;28;20371;-74
2022/05/13 12:56:16;;;;;;;5.40;1.20;;;16.80;95.50;;;;;;5049478;28;20485;-74
2022/05/13 12:58:48;;;;;;;8.35;1.30;;;16.80;96.70;;;;;;5052624;28;20041;-74
2022/05/13 13:01:15;;;;;;;7.57;1.13;;;16.80;97.30;;;;;;5035644;28;20501;-73
2022/05/13 13:03:43;;;;;;;5.95;1.38;;;16.70;97.00;;;;;;5043695;28;20042;-72
2022/05/13 13:06:17;;;;;;;6.32;1.20;;;16.90;97.30;;;;;;5016805;28;20398;-73
2022/05/13 13:08:46;;;;;;;5.43;1.80;;;16.70;96.80;;;;;;5032913;28;20493;-73
2022/05/13 13:11:11;;;;;;;6.30;1.35;;;16.70;98.00;;;;;;5020743;28;20139;-72
2022/05/13 13:13:47;;;;;;;7.43;1.70;;;16.70;99.00;;;;;;5027544;28;20061;-72
2022/05/13 13:16:52;;;;;;;8.45;1.50;;;16.70;98.90;;;;;;5033169;28;20044;-73
2022/05/13 13:19:20;;;;;;;7.88;2.20;;;16.70;99.90;;;;;;5015981;28;20049;-73
2022/05/13 13:21:56;;;;;;;8.20;1.60;;;16.70;99.90;;;;;;5032581;28;20073;-73
2022/05/13 13:24:28;;;;;;;6.30;1.65;;;16.70;99.90;;;;;;5032647;28;20049;-73
2022/05/13 13:26:54;;;;;;;6.78;1.60;;;16.70;99.50;;;;;;5032885;28;20053;-72
2022/05/13 13:29:29;;;;;;;5.18;1.65;;;16.80;99.70;;;;;;5016095;28;20045;-72
2022/05/13 13:31:58;;;;;;;8.68;1.75;;;16.70;99.90;;;;;;5032043;28;20033;-73
2022/05/13 13:34:49;;;;;;;6.18;1.60;;;16.60;99.90;;;;;;5044021;28;20164;-73
2022/05/13 13:37:17;;;;;;;7.85;1.77;;;16.50;99.90;;;;;;5040312;28;20049;-73
2022/05/13 13:39:42;;;;;;;6.82;1.60;;;16.70;99.90;;;;;;5032070;28;20084;-73
2022/05/13 13:42:12;;;;;;;10.00;2.42;;;16.60;99.90;;;;;;5031566;28;20076;-73
2022/05/13 13:44:39;;;;;;;9.07;2.08;;;16.60;99.90;;;;;;5034056;28;20093;-73
2022/05/13 13:47:11;;;;;;;12.05;2.65;;;16.60;99.90;;;;;;5034271;28;20378;-73